Terminal Aerodrome Forecast
Issued by NWS

Current Version | Previous Version | Graphics & Text | Print | Product List | Glossary On
Versions: 1 2 3 4 5 6 7 8 9 10 11 12 13 14 15 16 17 18 19 20 21 22 23
000
FTUS41 KPBZ 151700
TAFHLG
TAF
KHLG 151739Z 1518/1618 30010G18KT 3SM -SHSN OVC010
      TEMPO 1518/1519 1SM -SHSN
     FM152000 31010G20KT P6SM VCSH BKN025
     FM160200 32005KT P6SM BKN035
     FM160800 VRB03KT P6SM SKC=

USA.gov is the U.S. government's official web portal to all federal, state and local government web resources and services.